Aeroporto :
LOGIN :

Iscrizione | Disclaimer

   EN    FR    IT 

 










Sommario :    VFR   VFR Marginale   IFR   IFR Intensivo   IFR Molto Intensivo
Visibilità : 
Base nubi : 
>= 8 km
>= 3000ft
5 / 8 km
1000 / 3000 ft
1500m / 5 km
500 / 1000 ft
800 / 1500m
200 / 500 ft
< 800m
< 200 ft
Simboli :   Temporali  Nebbia  Neve Forte  Precipitazioni Forti  Vento > 20 kt
SIGMETs :   Varie  Temporali  Ghiacco  Turbolenza  Onda orograficha  Ceneri Vulcaniche






- Altitudine del aeroporto : 194 ft


EBCV - Chièvres

ULTIMO METAR :
  • 071913Z AUTO 21010KT 9999 OVC037/// 09/06 Q1016 BLU

METARs OBSOLETI :
  • 071855Z AUTO 21010KT 9999 OVC024/// 09/06 Q1017 WHT
  • 071842Z AUTO 21010KT 9999 OVC024/// 09/06 Q1017 WHT
  • 071825Z AUTO 21010KT 9999 OVC027/// 09/07 Q1017 BLU
  • 071755Z AUTO 21009KT 9999 OVC030/// 09/07 Q1017 BLU
  • 071725Z AUTO 20007KT 9999 OVC037/// 08/07 Q1017 BLU
  • 071655Z AUTO 21006KT 9999 OVC036/// 08/07 Q1017 BLU
  • 071643Z AUTO 21005KT 9999 OVC034/// 08/07 Q1016 BLU
  • 071625Z AUTO 22007KT 9999 OVC022/// 08/07 Q1016 WHT

TAF TAF EBCV
Valido dal 07 a 19 ore il 08 a 07 ore UTC


071541Z 0719/0807 24010KT 9999 SCT025 BKN040
BECMG 0720/0722 22015KT SCT015 BKN035
PROB30
TEMPO 0722/0802 6000 -RA BKN015
TEMPO 0804/0807 22020G35KT 3500 RA SCT008 BKN012 OVC025 BY EBWM



MetMap, La meteo Aeronautica in un colpo d'occhio ! - Copyright ORBIFLY Dicembre 2007 - Disclaimer

ORBIFLY MET'MAP TEAM :

Programmazione e sviluppo : Alexandra Zaïnal
Concezione : Baudouin d'Aumeries
Aiuto per la programmazione : Marc-Olivier Méhu
Supporto tecnico e logistico : Manuel Goepfert
Aiuto per la traduzione : Arnaldo La Scala

Contatto : metmap@orbifly.com




FONTI E CREDITI :

   NOAA